Time;durP1;ratioP1;P1;durP2;ratioP2;P2;SDS_P1;SDS_P2;PMS_P1;PMS_P2;Temp;Humidity;BMP_temperature;BMP_pressure;BME280_temperature;BME280_humidity;BME280_pressure;Samples;Min_cycle;Max_cycle;Signal;HPM_P1;HPM_P2
2020/12/27 00:02:24;;;;;;;1.80;0.37;;;2.60;99.90;;;;;;5033055;28;20174;-59
2020/12/27 00:04:50;;;;;;;2.17;0.70;;;2.70;99.90;;;;;;5033507;28;20209;-58
2020/12/27 00:07:15;;;;;;;2.77;0.73;;;2.60;99.90;;;;;;5034015;28;20205;-59
2020/12/27 00:09:43;;;;;;;1.90;0.67;;;2.60;99.90;;;;;;5033732;28;20206;-58
2020/12/27 00:12:12;;;;;;;1.80;0.30;;;2.60;99.90;;;;;;5035744;28;20217;-58
2020/12/27 00:14:39;;;;;;;1.70;0.20;;;2.60;99.90;;;;;;5027498;28;20194;-58
2020/12/27 00:17:11;;;;;;;1.90;0.55;;;2.60;99.90;;;;;;5026524;28;20253;-58
2020/12/27 00:19:40;;;;;;;1.80;0.30;;;2.60;99.90;;;;;;5037080;28;20219;-58
2020/12/27 00:22:07;;;;;;;2.08;0.55;;;2.60;99.90;;;;;;5035740;28;20182;-59
2020/12/27 00:24:33;;;;;;;1.70;0.20;;;2.60;99.90;;;;;;5030512;28;20196;-59
2020/12/27 00:26:59;;;;;;;3.70;3.40;;;2.60;99.90;;;;;;5035424;28;20183;-58
2020/12/27 00:29:25;;;;;;;3.13;1.05;;;2.60;99.90;;;;;;5056572;23;20286;-72
2020/12/27 00:31:52;;;;;;;1.80;0.30;;;2.60;99.90;;;;;;5029494;28;20247;-71
2020/12/27 00:34:18;;;;;;;1.90;0.40;;;2.60;99.90;;;;;;5028685;28;20185;-72
2020/12/27 00:36:44;;;;;;;1.90;0.60;;;2.60;99.90;;;;;;5031866;28;20178;-72
2020/12/27 00:39:10;;;;;;;1.70;0.20;;;2.60;99.90;;;;;;5033912;28;20213;-72
2020/12/27 00:41:36;;;;;;;1.70;0.20;;;2.60;99.90;;;;;;5027772;28;20229;-72
2020/12/27 00:44:02;;;;;;;2.10;0.40;;;2.60;99.90;;;;;;5035154;28;20264;-72
2020/12/27 00:46:29;;;;;;;1.70;0.20;;;2.60;99.90;;;;;;5035640;28;20197;-72
2020/12/27 00:48:55;;;;;;;2.25;0.77;;;2.70;99.90;;;;;;5029208;28;20203;-72
2020/12/27 00:51:23;;;;;;;1.70;0.20;;;2.60;99.90;;;;;;5030765;28;20240;-72
2020/12/27 00:53:49;;;;;;;1.70;0.20;;;2.60;99.90;;;;;;5034625;28;20535;-72
2020/12/27 00:56:15;;;;;;;1.70;0.20;;;2.60;99.90;;;;;;5014046;28;20273;-71
2020/12/27 00:58:42;;;;;;;3.30;1.17;;;2.60;99.90;;;;;;5034167;28;20452;-72
2020/12/27 01:01:12;;;;;;;1.90;0.40;;;2.60;99.90;;;;;;5017131;28;20472;-72
2020/12/27 01:03:39;;;;;;;4.07;0.82;;;2.60;99.90;;;;;;5013508;28;20190;-72
2020/12/27 01:06:04;;;;;;;1.70;0.20;;;2.60;99.90;;;;;;5033839;28;20244;-72
2020/12/27 01:08:30;;;;;;;1.70;0.20;;;2.70;99.90;;;;;;5014878;28;20228;-72
2020/12/27 01:10:58;;;;;;;2.97;0.90;;;2.60;99.90;;;;;;5016938;28;20210;-72
2020/12/27 01:13:25;;;;;;;1.70;0.20;;;2.60;99.90;;;;;;5032448;28;20541;-72
2020/12/27 01:15:51;;;;;;;2.00;0.63;;;2.60;99.90;;;;;;5026729;28;20556;-72
2020/12/27 01:18:16;;;;;;;4.10;0.97;;;2.60;99.90;;;;;;5032013;28;20332;-72
2020/12/27 01:20:42;;;;;;;3.27;1.27;;;2.50;99.90;;;;;;5005901;28;20672;-71
2020/12/27 01:23:08;;;;;;;1.70;0.20;;;2.50;99.90;;;;;;5027536;28;20573;-72
2020/12/27 01:25:33;;;;;;;1.70;0.20;;;2.50;99.90;;;;;;5031489;28;20204;-72
2020/12/27 01:27:59;;;;;;;1.70;0.20;;;2.50;99.90;;;;;;5015434;28;20635;-71
2020/12/27 01:30:25;;;;;;;1.80;0.40;;;2.50;99.90;;;;;;5029769;28;20468;-71
2020/12/27 01:32:51;;;;;;;1.70;0.20;;;2.50;99.90;;;;;;5031357;28;20416;-71
2020/12/27 01:35:16;;;;;;;3.23;1.07;;;2.50;99.90;;;;;;5014618;28;20671;-71
2020/12/27 01:37:42;;;;;;;1.70;0.20;;;2.60;99.90;;;;;;5032850;28;20193;-71
2020/12/27 01:40:08;;;;;;;1.80;0.40;;;2.50;99.90;;;;;;5033135;28;20210;-72
2020/12/27 01:42:33;;;;;;;1.70;0.20;;;2.50;99.90;;;;;;5033829;28;20181;-71
2020/12/27 01:44:59;;;;;;;1.70;0.20;;;2.50;99.90;;;;;;5033791;28;20423;-72
2020/12/27 01:47:31;;;;;;;1.70;0.20;;;2.40;99.90;;;;;;5031676;28;20908;-71
2020/12/27 01:49:58;;;;;;;1.70;0.20;;;2.40;99.90;;;;;;5016964;28;20469;-72
2020/12/27 01:52:24;;;;;;;1.70;0.20;;;2.50;99.90;;;;;;5032954;28;20215;-72
2020/12/27 01:54:51;;;;;;;1.70;0.30;;;2.40;99.90;;;;;;5032649;28;20228;-72
2020/12/27 01:57:20;;;;;;;2.00;0.70;;;2.40;99.90;;;;;;5033519;28;20190;-71
2020/12/27 01:59:47;;;;;;;1.80;0.30;;;2.40;99.90;;;;;;5032282;28;20726;-72
2020/12/27 02:02:17;;;;;;;1.90;0.50;;;2.40;99.90;;;;;;5032141;28;20190;-72
2020/12/27 02:04:43;;;;;;;1.80;0.30;;;2.40;99.90;;;;;;5032557;28;20281;-72
2020/12/27 02:07:09;;;;;;;1.70;0.20;;;2.40;99.90;;;;;;5031881;28;22144;-72
2020/12/27 02:09:39;;;;;;;2.10;0.50;;;2.50;99.90;;;;;;5032253;28;20210;-72
2020/12/27 02:12:08;;;;;;;1.80;0.30;;;2.40;99.90;;;;;;5034238;28;20537;-72
2020/12/27 02:14:37;;;;;;;1.70;0.20;;;2.40;99.90;;;;;;5031655;28;20174;-72
2020/12/27 02:17:04;;;;;;;1.77;0.35;;;2.40;99.90;;;;;;5031797;28;20596;-72
2020/12/27 02:19:30;;;;;;;1.70;0.30;;;2.40;99.90;;;;;;5025447;28;20249;-71
2020/12/27 02:21:56;;;;;;;3.67;1.60;;;2.30;99.90;;;;;;5030371;28;20268;-71
2020/12/27 02:24:23;;;;;;;1.70;0.20;;;2.30;99.90;;;;;;5017516;28;20180;-71
2020/12/27 02:26:59;;;;;;;2.08;0.70;;;2.30;99.90;;;;;;5040007;28;20688;-71
2020/12/27 02:29:28;;;;;;;1.80;0.38;;;2.30;99.90;;;;;;5047501;28;20206;-71
2020/12/27 02:31:55;;;;;;;1.70;0.20;;;2.30;99.90;;;;;;5045851;28;20170;-71
2020/12/27 02:34:21;;;;;;;2.45;1.08;;;2.20;99.90;;;;;;5040138;28;20272;-70
2020/12/27 02:36:46;;;;;;;1.80;0.30;;;2.20;99.90;;;;;;5036423;28;20197;-70
2020/12/27 02:39:14;;;;;;;4.50;1.07;;;2.20;99.90;;;;;;5033736;28;20564;-70
2020/12/27 02:41:40;;;;;;;2.90;1.38;;;2.10;99.90;;;;;;5044463;28;20198;-72
2020/12/27 02:44:07;;;;;;;3.95;1.25;;;2.10;99.90;;;;;;5043603;28;20186;-71
2020/12/27 02:46:32;;;;;;;1.90;0.38;;;2.00;99.90;;;;;;5048565;28;20193;-71
2020/12/27 02:48:58;;;;;;;3.07;1.47;;;2.10;99.90;;;;;;5046431;28;20181;-71
2020/12/27 02:51:24;;;;;;;1.90;0.37;;;2.00;99.90;;;;;;5035543;28;20202;-71
2020/12/27 02:53:51;;;;;;;2.00;0.40;;;2.00;99.90;;;;;;5047229;28;20208;-72
2020/12/27 02:56:22;;;;;;;3.10;1.40;;;1.90;99.90;;;;;;5039435;28;20195;-72
2020/12/27 02:58:51;;;;;;;5.03;2.90;;;2.00;99.90;;;;;;5015814;28;20186;-71
2020/12/27 03:01:18;;;;;;;12.20;2.25;;;2.00;99.90;;;;;;5040487;28;20202;-71
2020/12/27 03:03:43;;;;;;;2.95;1.13;;;2.00;99.90;;;;;;5029509;28;20194;-71
2020/12/27 03:06:09;;;;;;;1.70;0.20;;;1.90;99.90;;;;;;5027856;28;20671;-72
2020/12/27 03:08:35;;;;;;;1.80;0.20;;;2.00;99.90;;;;;;5032975;28;20442;-72
2020/12/27 03:11:01;;;;;;;1.90;0.40;;;1.90;99.90;;;;;;5030594;28;20621;-71
2020/12/27 03:13:28;;;;;;;3.73;0.57;;;1.90;99.90;;;;;;5032455;28;20850;-71
2020/12/27 03:15:54;;;;;;;3.33;1.85;;;1.90;99.90;;;;;;5031738;28;20236;-70
2020/12/27 03:18:21;;;;;;;1.90;0.63;;;1.80;99.90;;;;;;5029910;28;20260;-71
2020/12/27 03:20:47;;;;;;;3.45;1.50;;;1.80;99.90;;;;;;5032296;28;20722;-72
2020/12/27 03:23:13;;;;;;;1.77;0.30;;;1.80;99.90;;;;;;5030402;28;20216;-71
2020/12/27 03:25:38;;;;;;;1.70;0.20;;;1.80;99.90;;;;;;5029646;28;20173;-71
2020/12/27 03:28:04;;;;;;;1.70;0.20;;;1.80;99.90;;;;;;5022037;28;20371;-71
2020/12/27 03:30:30;;;;;;;6.40;3.27;;;1.80;99.90;;;;;;5031165;28;20229;-71
2020/12/27 03:32:56;;;;;;;1.77;0.28;;;1.70;99.90;;;;;;5030447;28;20185;-71
2020/12/27 03:35:22;;;;;;;1.80;0.47;;;1.80;99.90;;;;;;5024149;28;20676;-71
2020/12/27 03:37:47;;;;;;;2.37;0.70;;;1.80;99.90;;;;;;5032311;28;20923;-71
2020/12/27 03:40:13;;;;;;;4.93;1.57;;;1.80;99.90;;;;;;5030329;28;20216;-71
2020/12/27 03:42:39;;;;;;;2.80;0.82;;;1.80;99.90;;;;;;5026088;28;20186;-71
2020/12/27 03:45:05;;;;;;;1.80;0.40;;;1.80;99.90;;;;;;5031157;28;20192;-71
2020/12/27 03:47:30;;;;;;;2.30;0.50;;;1.80;99.90;;;;;;5030514;28;20198;-71
2020/12/27 03:49:56;;;;;;;1.70;0.20;;;1.90;99.90;;;;;;5032337;28;20884;-71
2020/12/27 03:52:22;;;;;;;1.70;0.20;;;1.90;99.90;;;;;;5029634;28;20232;-71
2020/12/27 03:54:48;;;;;;;1.75;0.20;;;1.90;99.90;;;;;;5031192;28;20202;-71
2020/12/27 03:57:13;;;;;;;3.70;1.70;;;1.90;99.90;;;;;;5031605;28;20201;-71
2020/12/27 03:59:39;;;;;;;1.70;0.20;;;1.80;99.90;;;;;;5027980;28;20241;-71
2020/12/27 04:02:04;;;;;;;2.80;0.93;;;1.90;99.90;;;;;;5024606;28;20209;-71
2020/12/27 04:04:30;;;;;;;2.83;0.77;;;1.80;99.90;;;;;;5014120;28;20212;-71
2020/12/27 04:06:55;;;;;;;1.70;0.20;;;1.80;99.90;;;;;;5012759;28;20627;-70
2020/12/27 04:09:21;;;;;;;1.80;0.30;;;1.80;99.90;;;;;;5031059;28;20257;-70
2020/12/27 04:11:46;;;;;;;1.70;0.20;;;1.80;99.90;;;;;;5030803;28;20239;-70
2020/12/27 04:14:12;;;;;;;1.70;0.20;;;1.80;99.90;;;;;;5027457;28;20257;-70
2020/12/27 04:16:37;;;;;;;4.60;2.17;;;1.70;99.90;;;;;;5035733;28;20195;-71
2020/12/27 04:19:03;;;;;;;1.70;0.20;;;1.70;99.90;;;;;;5034178;28;20251;-71
2020/12/27 04:21:29;;;;;;;1.70;0.20;;;1.70;99.90;;;;;;5035243;28;20182;-71
2020/12/27 04:23:54;;;;;;;6.13;2.70;;;1.70;99.90;;;;;;5033178;28;20505;-71
2020/12/27 04:26:20;;;;;;;2.63;1.57;;;1.80;99.90;;;;;;5034660;28;20248;-70
2020/12/27 04:28:46;;;;;;;1.70;0.30;;;1.70;99.90;;;;;;5034367;28;20210;-71
2020/12/27 04:31:20;;;;;;;3.07;1.53;;;1.70;99.90;;;;;;5032097;28;20232;-70
2020/12/27 04:33:47;;;;;;;1.70;0.20;;;1.60;99.90;;;;;;5033187;28;20186;-71
2020/12/27 04:36:14;;;;;;;2.22;0.80;;;1.60;99.90;;;;;;5034556;28;20645;-71
2020/12/27 04:38:39;;;;;;;1.80;0.40;;;1.60;99.90;;;;;;5035082;28;20238;-72
2020/12/27 04:41:05;;;;;;;3.37;1.53;;;1.60;99.90;;;;;;5032131;28;20217;-71
2020/12/27 04:43:32;;;;;;;1.80;0.40;;;1.50;99.90;;;;;;5035461;28;20178;-71
2020/12/27 04:46:03;;;;;;;1.70;0.20;;;1.50;99.90;;;;;;5030110;28;20787;-72
2020/12/27 04:48:30;;;;;;;1.70;0.20;;;1.50;99.90;;;;;;5032082;28;20207;-71
2020/12/27 04:51:02;;;;;;;1.70;0.20;;;1.50;99.90;;;;;;5024978;28;20750;-71
2020/12/27 04:53:27;;;;;;;3.58;1.15;;;1.40;99.90;;;;;;5035850;28;20182;-71
2020/12/27 04:55:54;;;;;;;1.90;0.53;;;1.50;99.90;;;;;;5034900;28;24157;-71
2020/12/27 04:58:22;;;;;;;1.70;0.20;;;1.40;99.90;;;;;;5034566;28;20190;-71
2020/12/27 05:00:48;;;;;;;1.80;0.40;;;1.50;99.90;;;;;;5029536;28;20217;-71
2020/12/27 05:03:13;;;;;;;1.70;0.20;;;1.50;99.90;;;;;;5028381;28;20194;-71
2020/12/27 05:05:39;;;;;;;1.90;0.40;;;1.60;99.90;;;;;;5034170;28;20200;-71
2020/12/27 05:08:04;;;;;;;1.70;0.20;;;1.60;99.90;;;;;;5033890;28;20214;-72
2020/12/27 05:10:30;;;;;;;4.03;3.73;;;1.60;99.90;;;;;;5033077;28;20252;-71
2020/12/27 05:12:55;;;;;;;1.70;0.20;;;1.60;99.90;;;;;;5035269;28;20196;-71
2020/12/27 05:15:22;;;;;;;1.80;0.30;;;1.60;99.90;;;;;;5034290;28;20248;-71
2020/12/27 05:17:48;;;;;;;1.92;0.50;;;1.70;99.90;;;;;;5034071;28;20201;-71
2020/12/27 05:20:14;;;;;;;1.80;0.30;;;1.60;99.90;;;;;;5033266;28;20210;-71
2020/12/27 05:22:41;;;;;;;1.70;0.20;;;1.60;99.90;;;;;;5030266;28;20791;-71
2020/12/27 05:25:07;;;;;;;1.70;0.20;;;1.70;99.90;;;;;;5034299;28;20600;-70
2020/12/27 05:27:39;;;;;;;1.70;0.30;;;1.70;99.90;;;;;;5033608;28;20221;-71
2020/12/27 05:30:05;;;;;;;1.80;0.50;;;1.80;99.90;;;;;;5030876;28;20553;-71
2020/12/27 05:32:30;;;;;;;2.07;0.60;;;1.80;99.90;;;;;;5014916;28;20228;-71
2020/12/27 05:34:57;;;;;;;1.70;0.20;;;1.80;99.90;;;;;;5040907;28;20187;-72
2020/12/27 05:37:25;;;;;;;1.70;0.20;;;1.80;99.90;;;;;;5038241;28;20464;-72
2020/12/27 05:39:50;;;;;;;1.70;0.20;;;1.90;99.90;;;;;;5031821;28;20649;-72
2020/12/27 05:42:16;;;;;;;1.70;0.20;;;1.90;99.90;;;;;;5033042;28;20201;-72
2020/12/27 05:44:41;;;;;;;3.50;1.50;;;1.90;99.90;;;;;;5033017;28;20186;-72
2020/12/27 05:47:07;;;;;;;2.00;0.40;;;1.90;99.90;;;;;;5034129;28;20182;-72
2020/12/27 05:49:32;;;;;;;4.20;2.10;;;1.90;99.90;;;;;;5033207;28;20276;-71
2020/12/27 05:51:59;;;;;;;1.70;0.20;;;1.90;99.90;;;;;;5033070;28;20668;-72
2020/12/27 05:54:35;;;;;;;1.70;0.20;;;1.90;99.90;;;;;;5034050;28;20182;-72
2020/12/27 05:57:04;;;;;;;1.77;0.28;;;2.00;99.90;;;;;;5028096;28;20210;-72
2020/12/27 05:59:35;;;;;;;3.53;0.63;;;1.90;99.90;;;;;;5027809;28;20238;-72
2020/12/27 06:02:01;;;;;;;1.70;0.20;;;1.90;99.90;;;;;;5033386;28;20198;-72
2020/12/27 06:04:57;;;;;;;1.73;0.30;;;1.90;99.90;;;;;;5031406;28;20190;-71
2020/12/27 06:07:39;;;;;;;3.40;1.45;;;1.80;99.90;;;;;;5027309;28;20208;-72
2020/12/27 06:10:14;;;;;;;2.28;1.17;;;1.80;99.90;;;;;;5012724;28;20294;-71
2020/12/27 06:13:12;;;;;;;1.70;0.20;;;1.80;99.90;;;;;;5028409;28;20181;-72
2020/12/27 06:15:45;;;;;;;4.65;3.00;;;1.70;99.90;;;;;;4988122;28;20198;-71
2020/12/27 06:18:13;;;;;;;1.70;0.20;;;1.70;99.90;;;;;;5015457;28;20200;-71
2020/12/27 06:20:40;;;;;;;2.03;0.50;;;1.70;99.90;;;;;;5026588;28;20199;-71
2020/12/27 06:23:08;;;;;;;1.80;0.30;;;1.70;99.90;;;;;;5023416;28;20237;-71
2020/12/27 06:25:34;;;;;;;2.42;0.73;;;1.80;99.90;;;;;;5028205;28;20189;-70
2020/12/27 06:28:01;;;;;;;2.10;0.65;;;1.80;99.90;;;;;;5033145;28;20534;-72
2020/12/27 06:30:34;;;;;;;1.70;0.20;;;1.80;99.90;;;;;;5015141;28;20229;-71
2020/12/27 06:33:14;;;;;;;1.70;0.20;;;1.80;99.90;;;;;;5026831;28;20217;-71
2020/12/27 06:35:45;;;;;;;3.17;0.82;;;1.80;99.90;;;;;;5024673;28;20450;-71
2020/12/27 06:38:21;;;;;;;4.22;1.70;;;1.70;99.90;;;;;;5031821;28;20186;-70
2020/12/27 06:40:51;;;;;;;1.73;0.25;;;1.60;99.90;;;;;;5030133;28;20209;-71
2020/12/27 06:43:21;;;;;;;2.65;1.05;;;1.60;99.90;;;;;;5033146;28;20240;-71
2020/12/27 06:45:48;;;;;;;2.47;1.05;;;1.70;99.90;;;;;;5031361;28;20216;-71
2020/12/27 06:48:34;;;;;;;2.60;0.77;;;1.70;99.90;;;;;;5028710;28;20240;-71
2020/12/27 06:51:00;;;;;;;2.00;0.63;;;1.70;99.90;;;;;;5022912;28;20198;-71
2020/12/27 06:53:45;;;;;;;2.57;0.80;;;1.70;99.90;;;;;;5032761;28;20186;-70
2020/12/27 06:56:12;;;;;;;2.17;0.57;;;1.70;99.90;;;;;;5024832;28;20197;-70
2020/12/27 06:58:39;;;;;;;3.78;1.30;;;1.70;99.90;;;;;;5034168;28;20209;-71
2020/12/27 07:01:10;;;;;;;1.90;0.30;;;1.70;99.90;;;;;;5030276;28;20202;-71
2020/12/27 07:03:35;;;;;;;1.90;0.40;;;1.70;99.90;;;;;;5032044;28;20189;-70
2020/12/27 07:06:15;;;;;;;3.73;2.50;;;1.70;99.90;;;;;;5020827;28;20183;-70
2020/12/27 07:08:42;;;;;;;3.78;2.13;;;1.70;99.90;;;;;;5026266;28;20238;-72
2020/12/27 07:11:08;;;;;;;3.72;1.33;;;1.70;99.90;;;;;;5027355;28;20189;-71
2020/12/27 07:13:45;;;;;;;2.97;0.82;;;1.70;99.90;;;;;;5024671;28;20229;-71
2020/12/27 07:16:13;;;;;;;4.25;1.10;;;1.70;99.90;;;;;;5025128;28;20182;-71
2020/12/27 07:18:38;;;;;;;4.82;2.20;;;1.80;99.90;;;;;;5029028;28;20669;-71
2020/12/27 07:21:11;;;;;;;1.90;0.50;;;1.80;99.90;;;;;;5032533;28;20292;-70
2020/12/27 07:23:37;;;;;;;1.80;0.30;;;1.80;99.90;;;;;;5021118;28;20675;-69
2020/12/27 07:26:04;;;;;;;2.58;1.30;;;1.80;99.90;;;;;;5030724;28;20200;-64
2020/12/27 07:28:30;;;;;;;4.20;2.05;;;1.90;99.90;;;;;;5032798;28;20210;-67
2020/12/27 07:30:56;;;;;;;3.15;1.55;;;1.90;99.90;;;;;;5030343;28;20218;-65
2020/12/27 07:33:27;;;;;;;1.87;0.43;;;1.90;99.90;;;;;;5027228;28;20185;-66
2020/12/27 07:36:00;;;;;;;1.75;0.28;;;1.90;99.90;;;;;;5028130;28;20187;-66
2020/12/27 07:38:39;;;;;;;1.70;0.20;;;1.90;99.90;;;;;;5029533;28;20201;-65
2020/12/27 07:41:06;;;;;;;1.90;0.30;;;1.90;99.90;;;;;;5024923;28;20202;-66
2020/12/27 07:43:32;;;;;;;3.10;1.00;;;2.00;99.90;;;;;;5033006;28;20185;-69
2020/12/27 07:46:05;;;;;;;3.25;1.48;;;2.00;99.90;;;;;;5029750;28;20174;-67
2020/12/27 07:48:30;;;;;;;1.80;0.30;;;2.00;99.90;;;;;;5031981;28;20688;-67
2020/12/27 07:50:56;;;;;;;1.80;0.30;;;2.00;99.90;;;;;;5038234;28;20240;-68
2020/12/27 07:53:21;;;;;;;1.70;0.30;;;2.00;99.90;;;;;;5018596;28;20214;-67
2020/12/27 07:55:47;;;;;;;2.20;0.50;;;2.00;99.90;;;;;;5030653;28;20549;-66
2020/12/27 07:58:13;;;;;;;2.10;0.50;;;2.00;99.90;;;;;;5035323;28;20284;-65
2020/12/27 08:00:42;;;;;;;1.73;0.27;;;2.00;99.90;;;;;;5033830;28;20557;-70
2020/12/27 08:03:09;;;;;;;1.80;0.43;;;2.00;99.90;;;;;;5033613;28;20178;-70
2020/12/27 08:05:38;;;;;;;1.70;0.20;;;2.00;99.90;;;;;;5035617;28;20208;-70
2020/12/27 08:08:05;;;;;;;2.65;1.00;;;2.00;99.90;;;;;;5033539;28;20603;-70
2020/12/27 08:10:31;;;;;;;1.70;0.20;;;2.00;99.90;;;;;;5032218;28;20202;-69
2020/12/27 08:12:59;;;;;;;1.70;0.20;;;2.10;99.90;;;;;;5036475;28;20232;-68
2020/12/27 08:15:27;;;;;;;2.22;0.57;;;2.10;99.90;;;;;;5035742;28;20948;-68
2020/12/27 08:17:58;;;;;;;2.00;0.60;;;2.10;99.90;;;;;;5030798;28;20206;-66
2020/12/27 08:20:25;;;;;;;1.90;0.50;;;2.10;99.90;;;;;;5034496;28;20266;-67
2020/12/27 08:23:06;;;;;;;3.45;0.65;;;2.10;99.90;;;;;;5049498;28;20652;-68
2020/12/27 08:25:33;;;;;;;2.58;1.05;;;2.10;99.90;;;;;;5053743;28;20212;-68
2020/12/27 08:28:01;;;;;;;2.22;0.77;;;2.10;99.90;;;;;;5045245;28;20270;-69
2020/12/27 08:30:27;;;;;;;1.90;0.40;;;2.20;99.90;;;;;;5032420;28;20213;-68
2020/12/27 08:33:06;;;;;;;1.80;0.20;;;2.20;99.90;;;;;;5035404;28;20182;-67
2020/12/27 08:35:32;;;;;;;2.15;0.47;;;2.20;99.90;;;;;;5031947;28;20217;-67
2020/12/27 08:38:22;;;;;;;1.90;0.47;;;2.20;99.90;;;;;;5017873;28;20190;-68
2020/12/27 08:41:05;;;;;;;1.70;0.20;;;2.20;99.90;;;;;;5025829;28;20240;-67
2020/12/27 08:43:48;;;;;;;1.80;0.40;;;2.30;99.90;;;;;;5018198;28;20802;-69
2020/12/27 08:46:18;;;;;;;1.70;0.30;;;2.30;99.90;;;;;;5016248;28;20200;-69
2020/12/27 08:48:53;;;;;;;3.55;0.50;;;2.40;99.90;;;;;;5017115;28;20210;-68
2020/12/27 08:51:21;;;;;;;1.80;0.30;;;2.40;99.90;;;;;;5036672;28;20217;-68
2020/12/27 08:53:46;;;;;;;1.70;0.20;;;2.40;99.90;;;;;;5033432;28;20604;-69
2020/12/27 08:56:12;;;;;;;1.90;0.40;;;2.40;99.90;;;;;;5034430;28;20190;-69
2020/12/27 08:58:38;;;;;;;1.70;0.20;;;2.40;99.90;;;;;;5032291;28;20190;-67
2020/12/27 09:01:23;;;;;;;1.70;0.20;;;2.40;99.90;;;;;;5033060;28;20443;-68
2020/12/27 09:03:49;;;;;;;2.55;0.82;;;2.50;99.90;;;;;;5032926;28;20185;-67
2020/12/27 09:06:15;;;;;;;1.70;0.20;;;2.50;99.90;;;;;;5032261;28;20643;-68
2020/12/27 09:08:40;;;;;;;1.80;0.30;;;2.50;99.90;;;;;;5031403;28;20469;-68
2020/12/27 09:11:06;;;;;;;2.20;0.80;;;2.60;99.90;;;;;;5035718;28;20284;-67
2020/12/27 09:13:36;;;;;;;1.70;0.20;;;2.60;99.90;;;;;;5035158;28;20633;-67
2020/12/27 09:16:02;;;;;;;2.55;0.95;;;2.60;99.90;;;;;;5029001;28;20285;-67
2020/12/27 09:18:30;;;;;;;2.00;0.30;;;2.60;99.90;;;;;;5035084;28;20210;-68
2020/12/27 09:21:07;;;;;;;2.20;0.70;;;2.70;99.90;;;;;;5036590;28;20496;-68
2020/12/27 09:23:34;;;;;;;2.10;1.33;;;2.70;99.90;;;;;;5035940;28;20185;-68
2020/12/27 09:26:10;;;;;;;2.90;1.13;;;2.70;99.90;;;;;;5034498;28;20760;-67
2020/12/27 09:28:40;;;;;;;1.73;0.30;;;2.80;99.90;;;;;;5035249;28;20286;-68
2020/12/27 09:31:08;;;;;;;2.13;0.52;;;2.80;99.90;;;;;;5019342;28;20217;-68
2020/12/27 09:33:36;;;;;;;1.95;0.43;;;2.80;99.90;;;;;;5033810;28;20213;-69
2020/12/27 09:36:03;;;;;;;1.77;0.30;;;2.90;99.90;;;;;;5028725;28;20258;-68
2020/12/27 09:38:33;;;;;;;1.95;0.70;;;2.90;99.90;;;;;;5029056;28;20196;-68
2020/12/27 09:41:09;;;;;;;2.42;0.85;;;2.90;99.90;;;;;;5034877;28;20218;-68
2020/12/27 09:43:54;;;;;;;1.70;0.20;;;3.00;99.90;;;;;;5030721;28;20182;-69
2020/12/27 09:46:40;;;;;;;1.73;0.30;;;3.00;99.90;;;;;;5028935;28;20197;-69
2020/12/27 09:49:20;;;;;;;2.35;0.50;;;3.10;99.90;;;;;;5032314;28;20193;-68
2020/12/27 09:51:46;;;;;;;1.70;0.20;;;3.10;99.90;;;;;;5027393;28;20708;-69
2020/12/27 09:54:12;;;;;;;1.70;0.20;;;3.10;99.90;;;;;;5030932;28;20192;-69
2020/12/27 09:56:44;;;;;;;1.70;0.20;;;3.20;99.90;;;;;;5028439;28;20178;-69
2020/12/27 09:59:10;;;;;;;1.70;0.20;;;3.20;99.90;;;;;;5029326;28;20214;-68
2020/12/27 10:01:37;;;;;;;1.70;0.20;;;3.20;99.90;;;;;;5033088;28;20186;-69
2020/12/27 10:04:03;;;;;;;1.70;0.20;;;3.20;99.90;;;;;;5035622;28;20437;-68
2020/12/27 10:06:30;;;;;;;1.73;0.20;;;3.20;99.90;;;;;;5034821;28;20255;-69
2020/12/27 10:08:56;;;;;;;2.00;0.60;;;3.20;99.90;;;;;;5034719;28;20205;-68
2020/12/27 10:11:21;;;;;;;1.70;0.20;;;3.20;99.90;;;;;;5032332;28;20182;-67
2020/12/27 10:13:47;;;;;;;1.70;0.20;;;3.30;99.90;;;;;;5030886;28;20448;-66
2020/12/27 10:16:12;;;;;;;1.70;0.20;;;3.30;99.90;;;;;;5031781;28;20201;-67
2020/12/27 10:18:38;;;;;;;1.70;0.20;;;3.40;99.90;;;;;;5033042;28;20218;-67
2020/12/27 10:21:07;;;;;;;1.80;0.30;;;3.40;99.90;;;;;;5033248;28;20657;-67
2020/12/27 10:23:34;;;;;;;1.80;0.30;;;3.40;99.90;;;;;;5031292;28;20174;-67
2020/12/27 10:26:01;;;;;;;1.75;0.40;;;3.50;99.90;;;;;;5032500;28;20694;-67
2020/12/27 10:28:26;;;;;;;3.35;1.30;;;3.50;99.90;;;;;;5031786;28;20217;-67
2020/12/27 10:30:52;;;;;;;2.30;1.10;;;3.60;99.90;;;;;;5031084;28;20220;-67
2020/12/27 10:33:17;;;;;;;1.80;0.50;;;3.70;99.90;;;;;;5033207;28;20197;-68
2020/12/27 10:35:42;;;;;;;2.00;0.57;;;3.70;99.90;;;;;;5032299;28;20239;-67
2020/12/27 10:38:08;;;;;;;1.70;0.20;;;3.70;99.90;;;;;;5032047;28;20250;-68
2020/12/27 10:40:37;;;;;;;1.70;0.20;;;3.80;99.90;;;;;;5033224;28;20201;-68
2020/12/27 10:43:03;;;;;;;2.30;0.60;;;3.80;99.90;;;;;;5029510;28;20232;-68
2020/12/27 10:45:29;;;;;;;2.20;0.70;;;3.80;99.90;;;;;;5026898;28;20267;-68
2020/12/27 10:47:54;;;;;;;2.20;0.50;;;3.80;99.90;;;;;;5029783;28;20676;-68
2020/12/27 10:50:19;;;;;;;1.70;0.20;;;3.80;99.90;;;;;;5031904;28;20216;-68
2020/12/27 10:52:45;;;;;;;2.90;0.70;;;3.90;99.90;;;;;;5031489;28;20711;-68
2020/12/27 10:55:10;;;;;;;1.70;0.23;;;3.90;99.90;;;;;;5031856;28;20178;-68
2020/12/27 10:57:36;;;;;;;1.70;0.20;;;3.90;99.90;;;;;;5027642;28;20217;-68
2020/12/27 11:00:02;;;;;;;1.77;0.27;;;3.90;99.90;;;;;;5029823;28;20210;-68
2020/12/27 11:02:27;;;;;;;1.70;0.20;;;3.90;99.90;;;;;;5028287;28;20266;-68
2020/12/27 11:04:53;;;;;;;1.70;0.20;;;4.00;99.90;;;;;;5031729;28;20801;-68
2020/12/27 11:07:18;;;;;;;1.70;0.20;;;4.00;99.90;;;;;;5031177;28;20197;-68
2020/12/27 11:09:44;;;;;;;1.93;0.30;;;4.00;99.90;;;;;;5030475;28;20201;-68
2020/12/27 11:12:09;;;;;;;2.33;0.70;;;4.10;99.90;;;;;;5031492;28;20189;-67
2020/12/27 11:14:35;;;;;;;1.70;0.20;;;4.10;99.90;;;;;;5032375;28;20641;-67
2020/12/27 11:17:00;;;;;;;1.70;0.27;;;4.20;99.90;;;;;;5028401;28;20271;-66
2020/12/27 11:19:27;;;;;;;2.00;0.50;;;4.20;99.90;;;;;;5030495;28;20217;-66
2020/12/27 11:21:52;;;;;;;1.88;0.50;;;4.10;99.90;;;;;;5031754;28;20222;-65
2020/12/27 11:24:18;;;;;;;1.70;0.20;;;4.10;99.90;;;;;;5014069;28;20197;-66
2020/12/27 11:26:43;;;;;;;1.70;0.30;;;4.20;99.90;;;;;;5025754;28;20194;-66
2020/12/27 11:29:09;;;;;;;1.70;0.20;;;4.20;99.90;;;;;;5028173;28;20265;-66
2020/12/27 11:31:34;;;;;;;1.70;0.20;;;4.30;99.90;;;;;;5025946;28;20182;-67
2020/12/27 11:34:00;;;;;;;1.70;0.20;;;4.30;99.90;;;;;;5032298;28;20197;-67
2020/12/27 11:36:26;;;;;;;1.80;0.30;;;4.30;99.90;;;;;;5032523;28;20182;-67
2020/12/27 11:38:52;;;;;;;1.70;0.20;;;4.40;99.90;;;;;;5029500;28;20184;-68
2020/12/27 11:41:17;;;;;;;1.70;0.20;;;4.40;99.90;;;;;;5033474;28;20676;-67
2020/12/27 11:43:43;;;;;;;1.70;0.20;;;4.40;99.90;;;;;;5031145;28;20190;-67
2020/12/27 11:46:09;;;;;;;1.70;0.20;;;4.50;99.90;;;;;;5025373;28;20193;-67
2020/12/27 11:48:35;;;;;;;2.47;0.40;;;4.50;99.90;;;;;;5032059;28;20478;-67
2020/12/27 11:51:00;;;;;;;2.00;0.57;;;4.60;99.90;;;;;;5030968;28;20251;-67
2020/12/27 11:53:26;;;;;;;1.70;0.20;;;4.50;99.90;;;;;;5023122;28;20196;-66
2020/12/27 11:55:51;;;;;;;1.70;0.20;;;4.60;99.90;;;;;;5028928;28;20174;-67
2020/12/27 11:58:17;;;;;;;2.37;0.30;;;4.60;99.90;;;;;;5029950;28;20197;-67
2020/12/27 12:00:42;;;;;;;1.70;0.20;;;4.60;99.90;;;;;;5021997;28;20264;-67
2020/12/27 12:03:08;;;;;;;1.70;0.30;;;4.60;99.90;;;;;;5032175;28;20186;-67
2020/12/27 12:05:33;;;;;;;3.03;0.87;;;4.60;99.90;;;;;;5031318;28;20239;-67
2020/12/27 12:07:59;;;;;;;1.87;0.30;;;4.60;99.90;;;;;;5029805;28;20951;-64
2020/12/27 12:10:25;;;;;;;1.73;0.30;;;4.60;99.90;;;;;;5030447;28;20202;-64
2020/12/27 12:12:50;;;;;;;1.70;0.20;;;4.60;99.90;;;;;;5031345;28;20193;-65
2020/12/27 12:15:16;;;;;;;2.00;0.30;;;4.50;99.90;;;;;;5032242;28;20182;-66
2020/12/27 12:17:41;;;;;;;1.70;0.20;;;4.60;99.90;;;;;;5030408;28;20193;-64
2020/12/27 12:20:42;;;;;;;2.10;0.30;;;4.60;99.90;;;;;;5014057;28;20221;-63
2020/12/27 12:22:52;;;;;;;1.80;0.30;;;4.60;99.90;;;;;;5032364;28;20189;-64
2020/12/27 12:25:18;;;;;;;1.70;0.20;;;4.50;99.90;;;;;;5029361;28;20552;-64
2020/12/27 12:27:43;;;;;;;1.70;0.20;;;4.50;99.90;;;;;;5021319;28;20202;-64
2020/12/27 12:30:09;;;;;;;1.70;0.20;;;4.50;99.90;;;;;;5025594;28;20210;-64
2020/12/27 12:32:34;;;;;;;1.80;0.30;;;4.50;99.90;;;;;;5026436;28;20213;-64
2020/12/27 12:35:00;;;;;;;1.70;0.20;;;4.50;99.90;;;;;;5032544;28;20193;-63
2020/12/27 12:37:25;;;;;;;1.73;0.30;;;4.50;99.90;;;;;;5035031;28;20276;-64
2020/12/27 12:39:51;;;;;;;1.70;0.20;;;4.50;99.90;;;;;;5034748;28;20198;-64
2020/12/27 12:42:16;;;;;;;1.70;0.20;;;4.50;99.90;;;;;;5032658;28;20193;-64
2020/12/27 12:44:42;;;;;;;1.77;0.27;;;4.50;99.90;;;;;;5031664;28;20190;-64
2020/12/27 12:47:07;;;;;;;1.70;0.20;;;4.50;99.90;;;;;;5035556;28;20182;-64
2020/12/27 12:49:32;;;;;;;1.70;0.20;;;4.50;99.90;;;;;;5034738;28;20214;-64
2020/12/27 12:51:58;;;;;;;1.70;0.20;;;4.50;99.90;;;;;;5035263;28;20185;-64
2020/12/27 12:54:23;;;;;;;1.83;0.43;;;4.50;99.90;;;;;;5034180;28;20637;-64
2020/12/27 12:56:49;;;;;;;1.70;0.20;;;4.60;99.90;;;;;;5034147;28;20197;-64
2020/12/27 12:59:15;;;;;;;1.92;0.75;;;4.60;99.90;;;;;;5031911;28;20264;-65
2020/12/27 13:01:40;;;;;;;1.70;0.20;;;4.70;99.90;;;;;;5030967;28;20185;-65